Time;durP1;ratioP1;P1;durP2;ratioP2;P2;SDS_P1;SDS_P2;PMS_P1;PMS_P2;Temp;Humidity;BMP_temperature;BMP_pressure;BME280_temperature;BME280_humidity;BME280_pressure;Samples;Min_cycle;Max_cycle;Signal;HPM_P1;HPM_P2
2022/03/11 00:01:01;;;;;;;14.33;8.13;;;5.60;59.00;;;;;;6243451;23;20401;-71
2022/03/11 00:03:47;;;;;;;12.70;9.03;;;5.70;58.80;;;;;;6244311;23;20375;-71
2022/03/11 00:06:35;;;;;;;13.90;8.23;;;5.80;57.60;;;;;;6243343;23;20490;-70
2022/03/11 00:09:20;;;;;;;14.53;8.00;;;5.90;58.10;;;;;;6242041;23;20431;-69
2022/03/11 00:12:07;;;;;;;11.90;8.57;;;5.90;57.10;;;;;;6243984;23;20350;-71
2022/03/11 00:14:53;;;;;;;14.60;8.50;;;6.10;55.70;;;;;;6243733;22;20414;-71
2022/03/11 00:17:38;;;;;;;14.50;8.63;;;6.20;56.20;;;;;;6243261;23;20379;-69
2022/03/11 00:20:24;;;;;;;18.53;9.40;;;6.20;55.90;;;;;;6242815;23;20371;-70
2022/03/11 00:23:11;;;;;;;12.43;8.73;;;6.30;56.10;;;;;;6243379;23;20399;-70
2022/03/11 00:25:57;;;;;;;12.40;8.93;;;6.20;56.70;;;;;;6244028;23;20353;-71
2022/03/11 00:28:43;;;;;;;14.70;9.17;;;6.20;54.80;;;;;;6242130;23;20934;-70
2022/03/11 00:31:29;;;;;;;15.87;10.17;;;6.30;55.60;;;;;;6241801;23;20350;-69
2022/03/11 00:34:14;;;;;;;16.00;9.60;;;6.40;54.60;;;;;;6242962;22;20407;-70
2022/03/11 00:37:00;;;;;;;15.17;9.47;;;6.60;54.40;;;;;;6243708;23;20880;-70
2022/03/11 00:39:47;;;;;;;12.63;9.40;;;6.60;53.60;;;;;;6242299;22;20450;-70
2022/03/11 00:42:33;;;;;;;15.93;9.27;;;6.70;52.90;;;;;;6244139;23;20358;-71
2022/03/11 00:45:19;;;;;;;16.30;10.27;;;6.70;53.50;;;;;;6243993;23;20357;-70
2022/03/11 00:48:05;;;;;;;23.53;10.87;;;6.80;52.60;;;;;;6241992;23;20391;-71
2022/03/11 00:50:50;;;;;;;16.60;9.70;;;6.70;52.70;;;;;;6243976;22;20483;-70
2022/03/11 00:53:36;;;;;;;15.47;10.57;;;6.70;52.40;;;;;;6243883;23;20675;-71
2022/03/11 00:56:24;;;;;;;28.07;9.93;;;6.80;51.90;;;;;;6242772;23;20424;-71
2022/03/11 00:59:09;;;;;;;16.80;11.00;;;6.90;51.80;;;;;;6241603;22;20433;-68
2022/03/11 01:01:55;;;;;;;16.03;10.10;;;6.90;51.70;;;;;;6243495;23;20848;-71
2022/03/11 01:04:41;;;;;;;14.43;9.33;;;6.90;51.60;;;;;;6243215;23;20354;-71
2022/03/11 01:07:26;;;;;;;15.63;10.60;;;6.90;51.50;;;;;;6241679;23;20417;-71
2022/03/11 01:10:12;;;;;;;18.30;11.03;;;6.90;51.10;;;;;;6242467;22;20729;-70
2022/03/11 01:12:59;;;;;;;16.67;10.80;;;7.00;50.80;;;;;;6243915;23;20350;-70
2022/03/11 01:15:45;;;;;;;19.43;11.80;;;6.90;50.40;;;;;;6242898;23;20441;-71
2022/03/11 01:18:30;;;;;;;18.10;10.80;;;7.00;51.00;;;;;;6241249;23;20876;-70
2022/03/11 01:21:16;;;;;;;21.60;10.67;;;6.90;50.60;;;;;;6243613;23;20375;-70
2022/03/11 01:24:02;;;;;;;16.33;10.77;;;6.90;50.40;;;;;;6242844;23;20383;-71
2022/03/11 01:26:47;;;;;;;18.53;10.77;;;6.90;50.20;;;;;;6242128;23;20441;-68
2022/03/11 01:29:34;;;;;;;22.53;12.30;;;6.90;50.50;;;;;;6241890;22;20774;-70
2022/03/11 01:32:20;;;;;;;17.17;12.13;;;6.90;50.10;;;;;;6243147;23;20833;-71
2022/03/11 01:35:07;;;;;;;20.27;11.50;;;6.90;50.00;;;;;;6242580;23;20391;-68
2022/03/11 01:37:52;;;;;;;19.97;12.00;;;6.90;50.20;;;;;;6241425;23;20375;-69
2022/03/11 01:40:38;;;;;;;16.53;11.43;;;6.90;49.50;;;;;;6243293;22;20788;-71
2022/03/11 01:43:24;;;;;;;19.77;12.00;;;7.00;49.40;;;;;;6241542;23;20354;-71
2022/03/11 01:46:11;;;;;;;20.97;12.90;;;7.10;49.20;;;;;;6243050;23;20346;-70
2022/03/11 01:48:56;;;;;;;18.60;12.43;;;7.10;49.20;;;;;;6241866;22;20397;-71
2022/03/11 01:51:43;;;;;;;20.77;12.40;;;7.00;48.90;;;;;;6243187;23;20378;-71
2022/03/11 01:54:29;;;;;;;18.00;12.13;;;7.10;48.80;;;;;;6243094;23;20353;-69
2022/03/11 01:57:15;;;;;;;20.33;11.57;;;7.20;47.80;;;;;;6241150;23;20477;-71
2022/03/11 02:00:01;;;;;;;23.17;13.50;;;7.10;47.90;;;;;;6243405;22;20411;-70
2022/03/11 02:02:48;;;;;;;17.20;11.10;;;7.20;47.70;;;;;;6242907;23;20375;-70
2022/03/11 02:05:34;;;;;;;26.37;12.40;;;7.10;47.80;;;;;;6241433;23;20466;-71
2022/03/11 02:08:20;;;;;;;23.87;13.50;;;7.10;47.90;;;;;;6241871;23;20399;-71
2022/03/11 02:11:05;;;;;;;20.40;11.97;;;7.10;47.60;;;;;;6242925;22;20850;-71
2022/03/11 02:13:52;;;;;;;19.73;13.23;;;7.10;48.60;;;;;;6242837;23;20437;-71
2022/03/11 02:16:40;;;;;;;23.83;13.43;;;7.00;48.70;;;;;;6239984;23;20401;-69
2022/03/11 02:19:26;;;;;;;20.20;12.73;;;7.10;48.20;;;;;;6242657;22;20517;-70
2022/03/11 02:22:14;;;;;;;20.57;13.57;;;7.10;47.60;;;;;;6243232;23;20406;-70
2022/03/11 02:25:01;;;;;;;26.80;12.83;;;6.90;48.10;;;;;;6242441;23;20390;-71
2022/03/11 02:27:47;;;;;;;22.43;13.17;;;6.90;48.30;;;;;;6240559;23;20345;-70
2022/03/11 02:30:33;;;;;;;23.73;13.97;;;6.80;48.70;;;;;;6241246;22;20772;-70
2022/03/11 02:33:18;;;;;;;20.07;13.03;;;6.70;49.10;;;;;;6242766;23;20371;-69
2022/03/11 02:36:05;;;;;;;19.73;13.37;;;6.70;49.20;;;;;;6240527;23;20357;-71
2022/03/11 02:38:51;;;;;;;24.73;14.67;;;6.60;50.20;;;;;;6242632;22;20456;-69
2022/03/11 02:41:41;;;;;;;23.40;14.10;;;6.70;49.40;;;;;;6242792;23;20362;-71
2022/03/11 02:44:29;;;;;;;22.40;13.97;;;6.70;49.00;;;;;;6242195;23;20877;-71
2022/03/11 02:47:16;;;;;;;20.03;13.33;;;6.70;48.60;;;;;;6241182;23;20388;-72
2022/03/11 02:50:02;;;;;;;17.70;12.90;;;6.70;49.40;;;;;;6242292;22;20490;-70
2022/03/11 02:52:48;;;;;;;24.60;13.63;;;6.60;49.80;;;;;;6243245;23;20354;-71
2022/03/11 02:55:33;;;;;;;22.87;14.57;;;6.60;48.60;;;;;;6242399;23;20380;-69
2022/03/11 02:58:21;;;;;;;24.87;15.50;;;6.60;49.70;;;;;;6245028;23;20427;-70
2022/03/11 03:01:07;;;;;;;21.40;13.87;;;6.60;48.80;;;;;;6245345;22;20444;-71
2022/03/11 03:03:52;;;;;;;23.77;14.10;;;6.60;48.90;;;;;;6244763;23;20858;-70
2022/03/11 03:06:38;;;;;;;26.00;14.67;;;6.60;49.10;;;;;;6242790;23;20489;-70
2022/03/11 03:09:23;;;;;;;21.03;14.30;;;6.50;48.80;;;;;;6244802;22;20784;-70
2022/03/11 03:12:10;;;;;;;20.70;14.50;;;6.40;49.40;;;;;;6244981;23;20483;-71
2022/03/11 03:14:57;;;;;;;24.00;15.20;;;6.40;49.40;;;;;;6243168;23;20462;-71
2022/03/11 03:17:43;;;;;;;21.93;14.37;;;6.40;49.50;;;;;;6243910;23;20693;-71
2022/03/11 03:20:29;;;;;;;23.43;15.20;;;6.40;49.20;;;;;;6244930;22;20731;-70
2022/03/11 03:23:15;;;;;;;22.83;14.07;;;6.30;49.50;;;;;;6243831;23;20380;-71
2022/03/11 03:26:01;;;;;;;25.10;14.73;;;6.40;49.80;;;;;;6242085;23;20400;-70
2022/03/11 03:28:47;;;;;;;24.50;16.23;;;6.20;51.00;;;;;;6244505;23;20376;-71
2022/03/11 03:31:34;;;;;;;24.93;14.93;;;6.00;51.60;;;;;;6243356;23;20451;-71
2022/03/11 03:34:19;;;;;;;22.50;14.57;;;6.10;51.20;;;;;;6243995;23;20418;-70
2022/03/11 03:37:09;;;;;;;30.23;16.73;;;6.00;51.90;;;;;;6243198;23;20429;-70
2022/03/11 03:39:54;;;;;;;23.60;15.17;;;5.70;52.70;;;;;;6244597;22;20401;-71
2022/03/11 03:42:45;;;;;;;23.30;15.60;;;5.70;52.70;;;;;;6243812;23;20383;-71
2022/03/11 03:45:31;;;;;;;22.47;15.03;;;5.70;51.90;;;;;;6242003;23;20372;-69
2022/03/11 03:48:19;;;;;;;28.97;15.77;;;5.70;51.40;;;;;;6243851;23;20382;-69
2022/03/11 03:51:05;;;;;;;21.50;15.00;;;5.90;50.50;;;;;;6244433;22;20444;-70
2022/03/11 03:53:51;;;;;;;24.57;15.47;;;5.90;51.10;;;;;;6243371;23;20752;-70
2022/03/11 03:56:37;;;;;;;21.67;13.90;;;5.80;50.10;;;;;;6242919;23;20461;-71
2022/03/11 03:59:24;;;;;;;24.07;15.40;;;5.80;50.10;;;;;;6243818;22;20473;-69
2022/03/11 04:02:09;;;;;;;23.77;14.53;;;5.90;49.80;;;;;;6244152;23;20372;-69
2022/03/11 04:04:56;;;;;;;27.77;15.97;;;5.90;48.40;;;;;;6241128;23;20354;-71
2022/03/11 04:07:42;;;;;;;25.07;15.50;;;5.90;48.50;;;;;;6244641;23;20350;-70
2022/03/11 04:10:28;;;;;;;22.53;15.03;;;6.00;48.70;;;;;;6244396;22;20429;-69
2022/03/11 04:13:13;;;;;;;26.80;14.70;;;6.00;48.90;;;;;;6243853;23;20364;-70
2022/03/11 04:15:59;;;;;;;23.57;15.43;;;6.10;49.40;;;;;;6242337;23;20453;-70
2022/03/11 04:18:44;;;;;;;25.70;15.17;;;5.90;49.20;;;;;;6244069;23;20455;-70
2022/03/11 04:21:31;;;;;;;21.80;15.47;;;5.80;49.50;;;;;;6244385;23;20842;-71
2022/03/11 04:24:17;;;;;;;26.80;16.43;;;5.60;50.10;;;;;;6241322;23;20438;-69
2022/03/11 04:27:03;;;;;;;25.23;14.10;;;5.50;50.80;;;;;;6244521;23;20350;-70
2022/03/11 04:29:49;;;;;;;25.30;15.50;;;5.40;51.70;;;;;;6242347;22;20487;-71
2022/03/11 04:32:35;;;;;;;25.17;14.90;;;5.20;52.20;;;;;;6244167;23;20432;-71
2022/03/11 04:35:20;;;;;;;24.97;15.37;;;5.10;52.50;;;;;;6240933;23;20485;-69
2022/03/11 04:38:09;;;;;;;24.17;14.87;;;5.10;52.80;;;;;;6243655;23;20425;-71
2022/03/11 04:40:54;;;;;;;24.53;16.27;;;5.00;52.70;;;;;;6243250;22;20401;-70
2022/03/11 04:43:39;;;;;;;24.70;15.20;;;5.00;52.00;;;;;;6241959;23;20383;-70
2022/03/11 04:46:25;;;;;;;24.83;14.57;;;5.00;52.00;;;;;;6243500;23;20379;-70
2022/03/11 04:49:10;;;;;;;22.77;15.13;;;5.00;51.50;;;;;;6243991;22;20876;-71
2022/03/11 04:51:56;;;;;;;28.30;15.20;;;5.00;51.10;;;;;;6243730;23;20496;-70
2022/03/11 04:54:43;;;;;;;21.47;14.27;;;5.00;49.20;;;;;;6241996;23;20429;-70
2022/03/11 04:57:29;;;;;;;31.87;15.53;;;5.00;49.60;;;;;;6243265;23;20422;-71
2022/03/11 05:00:15;;;;;;;26.43;15.10;;;5.00;49.70;;;;;;6242746;22;20407;-71
2022/03/11 05:03:01;;;;;;;26.97;14.10;;;5.10;49.30;;;;;;6243440;23;20457;-68
2022/03/11 05:05:46;;;;;;;25.50;14.97;;;5.10;49.80;;;;;;6243048;23;20378;-71
2022/03/11 05:08:32;;;;;;;22.00;13.90;;;5.10;48.60;;;;;;6243230;23;20387;-72
2022/03/11 05:11:20;;;;;;;24.90;13.70;;;5.10;48.90;;;;;;6242530;23;20466;-71
2022/03/11 05:14:06;;;;;;;22.67;14.20;;;5.10;48.70;;;;;;6240696;23;20380;-70
2022/03/11 05:16:51;;;;;;;22.47;14.57;;;5.10;48.90;;;;;;6243590;23;20825;-71
2022/03/11 05:19:37;;;;;;;24.27;15.47;;;5.00;49.00;;;;;;6242805;22;20810;-68
2022/03/11 05:22:22;;;;;;;20.30;13.77;;;4.90;49.20;;;;;;6243166;23;20371;-71
2022/03/11 05:25:09;;;;;;;23.67;15.27;;;4.90;49.10;;;;;;6241354;23;20715;-67
2022/03/11 05:27:56;;;;;;;25.33;14.87;;;4.90;48.90;;;;;;6243666;23;20366;-70
2022/03/11 05:30:42;;;;;;;24.30;13.17;;;4.80;49.80;;;;;;6242045;22;20417;-71
2022/03/11 05:33:27;;;;;;;23.23;13.53;;;4.80;47.90;;;;;;6241407;23;20375;-71
2022/03/11 05:36:13;;;;;;;20.60;13.47;;;4.80;48.20;;;;;;6243061;23;20379;-71
2022/03/11 05:38:58;;;;;;;20.40;14.00;;;4.80;48.20;;;;;;6242963;22;20878;-70
2022/03/11 05:41:46;;;;;;;22.63;14.13;;;4.90;49.20;;;;;;6242875;23;20497;-70
2022/03/11 05:44:34;;;;;;;21.77;13.23;;;4.80;48.60;;;;;;6240887;23;20384;-70
2022/03/11 05:47:19;;;;;;;25.10;14.47;;;4.70;47.80;;;;;;6243404;23;20888;-70
2022/03/11 05:50:07;;;;;;;19.50;11.90;;;4.60;47.70;;;;;;6242998;22;20560;-70
2022/03/11 05:52:52;;;;;;;21.80;12.67;;;4.60;45.80;;;;;;6241019;23;20949;-70
2022/03/11 05:55:38;;;;;;;19.37;12.17;;;4.50;46.60;;;;;;6243165;23;20482;-71
2022/03/11 05:58:24;;;;;;;18.13;11.83;;;4.50;46.20;;;;;;6242953;23;20374;-71
2022/03/11 06:01:11;;;;;;;20.30;13.23;;;4.40;46.60;;;;;;6243189;22;20504;-70
2022/03/11 06:03:56;;;;;;;22.63;13.33;;;4.40;46.20;;;;;;6240141;23;20470;-71
2022/03/11 06:06:42;;;;;;;18.83;12.13;;;4.40;46.40;;;;;;6243675;23;20377;-71
2022/03/11 06:09:28;;;;;;;23.37;11.90;;;4.40;46.40;;;;;;6242612;22;20388;-71
2022/03/11 06:12:15;;;;;;;22.40;13.37;;;4.50;45.50;;;;;;6242197;23;20383;-70
2022/03/11 06:15:00;;;;;;;19.93;13.97;;;4.60;45.00;;;;;;6242290;23;20486;-71
2022/03/11 06:17:47;;;;;;;19.20;12.33;;;4.60;44.20;;;;;;6242191;23;20565;-70
2022/03/11 06:20:34;;;;;;;21.30;13.83;;;4.70;43.40;;;;;;6242731;22;20413;-71
2022/03/11 06:23:20;;;;;;;19.37;12.50;;;4.80;43.90;;;;;;6237289;23;20709;-69
2022/03/11 06:26:05;;;;;;;26.50;13.83;;;4.70;43.90;;;;;;6240729;23;20382;-69
2022/03/11 06:28:51;;;;;;;17.80;12.13;;;4.70;43.70;;;;;;6240306;22;20453;-70
2022/03/11 06:31:37;;;;;;;24.80;12.30;;;4.70;43.80;;;;;;6241076;23;20516;-68
2022/03/11 06:34:24;;;;;;;18.90;11.47;;;4.70;43.10;;;;;;6240695;23;20490;-70
2022/03/11 06:37:10;;;;;;;18.97;11.40;;;4.70;43.20;;;;;;6240444;23;20378;-71
2022/03/11 06:39:56;;;;;;;20.37;12.10;;;4.80;43.70;;;;;;6241670;22;20477;-70
2022/03/11 06:42:43;;;;;;;18.43;10.97;;;4.80;42.50;;;;;;6239660;23;20375;-70
2022/03/11 06:45:28;;;;;;;20.20;12.20;;;4.90;42.10;;;;;;6242011;23;20387;-68
2022/03/11 06:48:14;;;;;;;27.27;11.90;;;4.80;42.80;;;;;;6242232;23;20395;-70
2022/03/11 06:51:04;;;;;;;17.67;10.57;;;4.90;42.10;;;;;;6241906;22;20630;-70
2022/03/11 06:53:50;;;;;;;21.03;11.97;;;4.90;41.80;;;;;;6238998;23;20466;-71
2022/03/11 06:56:36;;;;;;;20.10;10.83;;;4.90;40.20;;;;;;6241794;23;20398;-70
2022/03/11 06:59:22;;;;;;;15.43;11.93;;;4.90;40.60;;;;;;6242372;22;20488;-70
2022/03/11 07:02:07;;;;;;;20.17;11.60;;;5.00;40.70;;;;;;6241171;23;20349;-70
2022/03/11 07:04:53;;;;;;;20.07;12.07;;;5.00;40.30;;;;;;6241975;23;20759;-67
2022/03/11 07:07:40;;;;;;;18.03;10.63;;;5.10;40.80;;;;;;6241698;23;20709;-69
2022/03/11 07:10:26;;;;;;;16.07;10.83;;;5.20;39.00;;;;;;6241315;22;20454;-68
2022/03/11 07:13:12;;;;;;;18.13;12.50;;;5.20;39.90;;;;;;6239279;23;20436;-70
2022/03/11 07:15:58;;;;;;;18.00;10.87;;;5.30;40.10;;;;;;6240987;23;20375;-70
2022/03/11 07:18:44;;;;;;;20.43;11.17;;;5.30;40.60;;;;;;6240985;23;20379;-70
2022/03/11 07:21:30;;;;;;;20.47;11.70;;;5.40;40.30;;;;;;6239491;23;20470;-68
2022/03/11 07:24:17;;;;;;;15.97;9.40;;;5.50;39.60;;;;;;6241637;23;20354;-69
2022/03/11 07:27:03;;;;;;;20.50;10.50;;;5.60;39.50;;;;;;6242036;23;20684;-70
2022/03/11 07:29:49;;;;;;;22.17;11.20;;;5.60;39.40;;;;;;6241169;22;20393;-71
2022/03/11 07:32:35;;;;;;;16.93;10.47;;;5.60;39.40;;;;;;6240109;23;20357;-70
2022/03/11 07:35:20;;;;;;;19.00;10.93;;;5.70;38.40;;;;;;6241744;23;20354;-70
2022/03/11 07:38:06;;;;;;;18.20;12.40;;;5.90;38.80;;;;;;6241868;23;20378;-69
2022/03/11 07:40:53;;;;;;;16.23;10.33;;;6.00;38.80;;;;;;6240506;22;20490;-70
2022/03/11 07:43:44;;;;;;;18.10;10.57;;;6.10;37.80;;;;;;6243140;23;20391;-70
2022/03/11 07:46:31;;;;;;;15.00;9.50;;;6.10;38.40;;;;;;6241994;23;20374;-71
2022/03/11 07:49:17;;;;;;;18.70;10.80;;;6.20;38.20;;;;;;6243689;22;21128;-69
2022/03/11 07:52:03;;;;;;;14.70;9.50;;;6.10;36.40;;;;;;6240303;23;20394;-70
2022/03/11 07:54:48;;;;;;;17.40;9.80;;;6.10;36.80;;;;;;6242523;23;20462;-70
2022/03/11 07:57:36;;;;;;;24.67;11.37;;;6.20;35.30;;;;;;6243356;23;20396;-70
2022/03/11 08:00:22;;;;;;;13.20;9.20;;;6.20;36.70;;;;;;6243374;22;20389;-70
2022/03/11 08:03:08;;;;;;;15.10;9.93;;;6.40;36.50;;;;;;6239797;23;20361;-69
2022/03/11 08:05:54;;;;;;;14.77;9.90;;;6.40;37.70;;;;;;6244751;23;20358;-70
2022/03/11 08:08:40;;;;;;;14.27;9.70;;;6.50;37.00;;;;;;6244549;23;20380;-70
2022/03/11 08:11:25;;;;;;;16.03;9.90;;;6.50;36.80;;;;;;6242663;23;20948;-69
2022/03/11 08:14:13;;;;;;;16.10;9.90;;;6.60;36.90;;;;;;6244254;23;20375;-69
2022/03/11 08:16:59;;;;;;;17.10;9.90;;;6.70;35.50;;;;;;6243116;23;20837;-69
2022/03/11 08:19:45;;;;;;;18.80;9.90;;;6.80;35.40;;;;;;6244748;22;20473;-68
2022/03/11 08:22:30;;;;;;;19.03;9.30;;;6.80;35.90;;;;;;6243437;23;20959;-69
2022/03/11 08:25:16;;;;;;;16.60;10.00;;;6.90;34.90;;;;;;6243739;23;20858;-69
2022/03/11 08:28:04;;;;;;;17.80;10.00;;;7.00;35.00;;;;;;6244280;23;20350;-69
2022/03/11 08:30:51;;;;;;;25.33;10.03;;;7.10;35.70;;;;;;6242317;22;20430;-69
2022/03/11 08:33:39;;;;;;;15.27;9.80;;;7.30;35.40;;;;;;6243620;23;20420;-69
2022/03/11 08:36:25;;;;;;;16.10;9.03;;;7.50;34.60;;;;;;6244236;23;20466;-69
2022/03/11 08:39:11;;;;;;;18.47;10.67;;;7.60;33.80;;;;;;6243899;22;20466;-69
2022/03/11 08:41:57;;;;;;;14.33;9.53;;;7.70;34.00;;;;;;6241455;23;20434;-69
2022/03/11 08:44:42;;;;;;;17.50;9.80;;;7.80;33.70;;;;;;6243535;23;20430;-70
2022/03/11 08:47:29;;;;;;;14.23;8.77;;;7.90;32.90;;;;;;6242369;23;20433;-69
2022/03/11 08:50:16;;;;;;;18.37;11.47;;;7.90;32.00;;;;;;6240565;22;21033;-69
2022/03/11 08:53:05;;;;;;;14.77;9.67;;;7.90;32.50;;;;;;6242328;23;20495;-70
2022/03/11 08:55:51;;;;;;;15.00;9.97;;;7.90;33.10;;;;;;6243422;23;20455;-71
2022/03/11 08:58:37;;;;;;;17.27;9.03;;;8.00;32.60;;;;;;6244074;23;20371;-68
2022/03/11 09:01:22;;;;;;;18.93;9.67;;;8.10;32.10;;;;;;6242155;23;20824;-69
2022/03/11 09:04:09;;;;;;;17.50;9.80;;;8.10;30.80;;;;;;6240766;23;20351;-71
2022/03/11 09:06:55;;;;;;;21.07;10.10;;;8.10;34.10;;;;;;6239439;23;20358;-73
2022/03/11 09:09:41;;;;;;;14.53;9.40;;;8.30;32.80;;;;;;6240530;22;20436;-69
2022/03/11 09:12:27;;;;;;;15.80;9.43;;;8.40;31.60;;;;;;6237560;23;20402;-71
2022/03/11 09:15:13;;;;;;;18.33;9.90;;;8.40;32.40;;;;;;6241986;23;20438;-68
2022/03/11 09:17:59;;;;;;;17.90;8.60;;;8.60;31.40;;;;;;6240255;23;20394;-69
2022/03/11 09:20:47;;;;;;;14.27;9.17;;;8.70;31.50;;;;;;6240467;22;20411;-68
2022/03/11 09:23:33;;;;;;;19.40;9.63;;;8.80;31.60;;;;;;6239133;23;20697;-69
2022/03/11 09:26:19;;;;;;;16.50;10.27;;;8.90;31.80;;;;;;6241833;23;21199;-69
2022/03/11 09:29:05;;;;;;;18.43;9.27;;;9.00;31.90;;;;;;6239955;22;20482;-69
2022/03/11 09:31:50;;;;;;;17.83;9.53;;;9.10;30.90;;;;;;6242706;23;20761;-69
2022/03/11 09:34:37;;;;;;;16.10;9.83;;;9.20;31.00;;;;;;6242930;23;20349;-70
2022/03/11 09:37:24;;;;;;;18.97;11.63;;;9.20;31.20;;;;;;6242709;23;20375;-69
2022/03/11 09:40:12;;;;;;;13.70;9.40;;;9.40;31.40;;;;;;6239282;22;20430;-69
2022/03/11 09:42:58;;;;;;;17.27;9.90;;;9.50;29.70;;;;;;6241815;23;20431;-69
2022/03/11 09:45:46;;;;;;;14.23;9.47;;;9.60;29.80;;;;;;6241880;23;20853;-69
2022/03/11 09:48:32;;;;;;;13.00;8.77;;;9.70;29.90;;;;;;6242016;23;20379;-71
2022/03/11 09:51:19;;;;;;;15.47;10.10;;;9.80;29.90;;;;;;6241313;23;20820;-69
2022/03/11 09:54:06;;;;;;;14.70;9.07;;;10.00;29.80;;;;;;6241498;23;20745;-71
2022/03/11 09:56:52;;;;;;;18.17;10.63;;;10.10;29.30;;;;;;6240716;23;20462;-69
2022/03/11 09:59:38;;;;;;;13.33;8.40;;;10.10;28.20;;;;;;6241520;22;20398;-69
2022/03/11 10:02:24;;;;;;;16.20;10.07;;;10.20;28.00;;;;;;6240451;23;20424;-69
2022/03/11 10:05:10;;;;;;;16.30;9.23;;;10.40;28.90;;;;;;6239493;23;20375;-69
2022/03/11 10:08:00;;;;;;;16.20;9.47;;;10.60;29.10;;;;;;6240194;23;20362;-69
2022/03/11 10:10:47;;;;;;;14.63;10.67;;;10.80;28.90;;;;;;6240025;22;20468;-72
2022/03/11 10:13:38;;;;;;;15.43;9.43;;;11.00;28.30;;;;;;6241329;23;20442;-70
2022/03/11 10:16:25;;;;;;;14.00;9.80;;;11.20;28.50;;;;;;6240949;23;20950;-69
2022/03/11 10:19:14;;;;;;;12.23;9.83;;;11.30;28.40;;;;;;6239605;22;20376;-69
2022/03/11 10:22:00;;;;;;;13.90;8.93;;;11.40;28.10;;;;;;6239730;23;20818;-72
2022/03/11 10:24:46;;;;;;;13.60;9.30;;;11.60;27.90;;;;;;6241451;23;20472;-69
2022/03/11 10:27:33;;;;;;;15.40;9.23;;;11.70;28.10;;;;;;6242262;23;20374;-70
2022/03/11 10:30:19;;;;;;;14.80;9.50;;;11.90;27.60;;;;;;6239778;22;20416;-69
2022/03/11 10:33:07;;;;;;;16.20;10.10;;;12.00;26.40;;;;;;6241653;23;20394;-69
2022/03/11 10:35:53;;;;;;;16.17;9.20;;;12.20;27.20;;;;;;6242700;23;20393;-69
2022/03/11 10:38:39;;;;;;;18.33;10.60;;;12.40;27.40;;;;;;6242661;23;20386;-69
2022/03/11 10:41:32;;;;;;;13.80;9.70;;;12.50;26.70;;;;;;6240381;23;20776;-72
2022/03/11 10:44:26;;;;;;;21.70;9.53;;;12.70;25.80;;;;;;6241398;23;20374;-69
2022/03/11 10:47:21;;;;;;;13.23;9.67;;;12.90;25.80;;;;;;6242200;23;20348;-69
2022/03/11 10:50:08;;;;;;;13.70;9.20;;;13.00;24.90;;;;;;6239994;22;20429;-69
2022/03/11 10:52:55;;;;;;;12.60;8.80;;;12.90;24.90;;;;;;6237841;23;20995;-69
2022/03/11 10:55:43;;;;;;;13.03;9.03;;;13.10;26.00;;;;;;6240186;23;20380;-69
2022/03/11 10:58:29;;;;;;;18.57;10.90;;;13.40;26.10;;;;;;6239938;23;20711;-69
2022/03/11 11:01:17;;;;;;;12.53;8.90;;;13.60;25.20;;;;;;6238739;22;20465;-69
2022/03/11 11:04:05;;;;;;;14.10;10.00;;;13.80;25.20;;;;;;6240349;23;20875;-70
2022/03/11 11:06:51;;;;;;;15.70;10.27;;;14.00;25.20;;;;;;6239714;23;20350;-69
2022/03/11 11:09:38;;;;;;;14.53;9.77;;;14.10;24.50;;;;;;6236890;22;20937;-71
2022/03/11 11:12:24;;;;;;;14.00;9.73;;;14.20;24.30;;;;;;6239328;23;20540;-69
2022/03/11 11:15:11;;;;;;;16.60;9.30;;;14.40;23.90;;;;;;6238789;23;20804;-70
2022/03/11 11:18:06;;;;;;;13.90;9.70;;;14.40;23.50;;;;;;6243268;23;20762;-69
2022/03/11 11:20:53;;;;;;;13.00;9.10;;;14.50;24.00;;;;;;6240926;22;20461;-70
2022/03/11 11:23:39;;;;;;;15.40;9.53;;;14.60;24.50;;;;;;6242938;23;20373;-69
2022/03/11 11:26:26;;;;;;;16.90;9.13;;;14.80;23.80;;;;;;6242780;23;20385;-69
2022/03/11 11:29:12;;;;;;;14.33;9.77;;;14.90;23.50;;;;;;6240940;22;21197;-69
2022/03/11 11:31:58;;;;;;;13.60;9.70;;;15.00;23.70;;;;;;6242911;23;20422;-69
2022/03/11 11:34:46;;;;;;;12.57;9.63;;;15.00;23.30;;;;;;6243060;23;20400;-69
2022/03/11 11:37:38;;;;;;;18.43;9.67;;;15.00;24.10;;;;;;6242711;23;20462;-69
2022/03/11 11:40:26;;;;;;;16.47;8.77;;;15.00;23.70;;;;;;6237486;22;20760;-72
2022/03/11 11:43:30;;;;;;;15.27;9.80;;;15.00;23.80;;;;;;6240934;23;20732;-70
2022/03/11 11:46:20;;;;;;;13.60;9.57;;;15.00;23.90;;;;;;6242433;23;20383;-69
2022/03/11 11:49:13;;;;;;;14.30;10.03;;;15.10;24.40;;;;;;6240993;22;20724;-69
2022/03/11 11:52:01;;;;;;;13.60;9.43;;;15.10;23.30;;;;;;6243470;23;20423;-69
2022/03/11 11:54:47;;;;;;;12.90;9.40;;;15.20;24.10;;;;;;6242943;23;20391;-70
2022/03/11 11:57:37;;;;;;;12.20;8.70;;;15.20;24.30;;;;;;6242676;23;20379;-70
2022/03/11 12:00:35;;;;;;;16.10;10.37;;;15.30;23.60;;;;;;6241215;22;20406;-69
2022/03/11 12:03:21;;;;;;;18.40;9.30;;;15.50;22.70;;;;;;6241928;23;20379;-70
2022/03/11 12:06:06;;;;;;;17.63;9.93;;;15.60;24.00;;;;;;6242606;23;20383;-69
2022/03/11 12:08:53;;;;;;;14.50;9.40;;;15.60;23.20;;;;;;6240595;23;20455;-69
2022/03/11 12:11:42;;;;;;;15.33;10.10;;;15.80;23.00;;;;;;6242945;23;20466;-69
2022/03/11 12:14:29;;;;;;;14.37;10.40;;;16.00;23.80;;;;;;6239833;23;20902;-71
2022/03/11 12:17:15;;;;;;;18.27;9.47;;;16.20;23.30;;;;;;6242445;23;20423;-70
2022/03/11 12:20:25;;;;;;;13.90;9.83;;;16.30;23.40;;;;;;6241069;22;20411;-70
2022/03/11 12:23:12;;;;;;;12.70;9.13;;;16.50;23.50;;;;;;6242011;23;20891;-69
2022/03/11 12:26:09;;;;;;;15.43;10.07;;;16.60;23.00;;;;;;6242262;23;20462;-72
2022/03/11 12:28:54;;;;;;;13.93;9.23;;;16.60;22.40;;;;;;6239711;22;20389;-71
2022/03/11 12:31:44;;;;;;;12.20;9.10;;;16.50;22.90;;;;;;6242497;23;20982;-69
2022/03/11 12:34:30;;;;;;;18.80;9.83;;;16.70;23.40;;;;;;6242128;23;20422;-69
2022/03/11 12:37:16;;;;;;;11.93;9.67;;;16.90;22.80;;;;;;6241293;23;20391;-72
2022/03/11 12:40:09;;;;;;;14.47;9.70;;;16.80;22.20;;;;;;6242038;22;20930;-69
2022/03/11 12:43:01;;;;;;;14.83;9.97;;;16.70;22.70;;;;;;6242142;23;20761;-72
2022/03/11 12:45:48;;;;;;;14.43;9.23;;;16.80;22.30;;;;;;6242889;23;20388;-70
2022/03/11 12:48:37;;;;;;;13.30;9.10;;;17.00;21.60;;;;;;6239793;23;21117;-69
2022/03/11 12:51:25;;;;;;;12.90;9.23;;;17.10;22.10;;;;;;6240897;23;20376;-69
2022/03/11 12:54:18;;;;;;;13.47;10.00;;;17.30;21.50;;;;;;6240553;23;20382;-70
2022/03/11 12:57:04;;;;;;;15.20;9.77;;;17.30;21.80;;;;;;6238918;23;20933;-71
2022/03/11 12:59:51;;;;;;;13.40;9.30;;;17.40;21.50;;;;;;6237082;22;20483;-69
2022/03/11 13:02:37;;;;;;;16.50;9.10;;;17.50;20.80;;;;;;6240172;23;20381;-73
2022/03/11 13:05:24;;;;;;;10.90;8.03;;;17.50;20.50;;;;;;6241393;23;20960;-70
2022/03/11 13:08:15;;;;;;;12.70;9.40;;;17.50;20.90;;;;;;6237416;23;20459;-70
2022/03/11 13:11:03;;;;;;;13.77;9.73;;;17.60;21.00;;;;;;6238674;22;20471;-71
2022/03/11 13:13:50;;;;;;;14.10;9.37;;;17.70;21.40;;;;;;6239087;23;20436;-70
2022/03/11 13:16:37;;;;;;;12.27;8.90;;;17.80;20.20;;;;;;6239132;23;20357;-73
2022/03/11 13:19:23;;;;;;;15.30;8.90;;;18.00;21.60;;;;;;6239239;22;20417;-70
2022/03/11 13:22:12;;;;;;;14.30;9.27;;;18.10;21.60;;;;;;6241927;23;20373;-69
2022/03/11 13:25:05;;;;;;;15.87;9.17;;;18.10;21.60;;;;;;6239755;23;20434;-71
2022/03/11 13:27:51;;;;;;;11.03;8.70;;;18.20;21.40;;;;;;6238313;23;20427;-70
2022/03/11 13:30:39;;;;;;;14.60;9.40;;;18.40;20.40;;;;;;6238890;22;20923;-70
2022/03/11 13:33:29;;;;;;;13.97;8.20;;;18.40;20.20;;;;;;6239515;23;21472;-70
2022/03/11 13:36:17;;;;;;;14.90;9.43;;;18.40;21.10;;;;;;6240873;23;20414;-70
2022/03/11 13:39:07;;;;;;;16.17;9.27;;;18.50;20.80;;;;;;6238695;22;20378;-70
2022/03/11 13:41:55;;;;;;;14.87;9.30;;;18.60;20.70;;;;;;6239426;23;20378;-70
2022/03/11 13:44:40;;;;;;;12.37;9.60;;;18.60;20.20;;;;;;6239857;23;20843;-69
2022/03/11 13:47:26;;;;;;;13.03;8.80;;;18.70;20.20;;;;;;6238985;23;20489;-70
2022/03/11 13:50:14;;;;;;;11.77;8.77;;;18.90;20.40;;;;;;6241979;22;20941;-69
2022/03/11 13:53:00;;;;;;;13.90;9.10;;;19.10;20.60;;;;;;6240380;23;20438;-69
2022/03/11 13:55:46;;;;;;;12.90;8.33;;;19.30;20.10;;;;;;6241680;23;20416;-69
2022/03/11 13:58:32;;;;;;;22.17;10.40;;;19.40;19.10;;;;;;6238791;23;20378;-70
2022/03/11 14:01:18;;;;;;;13.63;8.47;;;19.20;19.80;;;;;;6240654;22;20499;-70
2022/03/11 14:04:18;;;;;;;14.87;8.00;;;19.30;20.00;;;;;;6238678;23;20352;-71
2022/03/11 14:07:10;;;;;;;15.17;9.40;;;19.10;20.50;;;;;;6238189;23;20505;-70
2022/03/11 14:09:56;;;;;;;12.13;9.47;;;19.10;19.60;;;;;;6239192;22;20395;-69
2022/03/11 14:12:42;;;;;;;12.60;8.63;;;19.10;19.70;;;;;;6240569;23;20487;-70
2022/03/11 14:15:32;;;;;;;12.53;8.63;;;19.00;20.00;;;;;;6236925;23;20384;-70
2022/03/11 14:18:22;;;;;;;13.20;8.93;;;18.70;19.90;;;;;;6239042;23;20457;-70